createdAt,value
2022-10-11T00:13:19.624Z,99.90
2022-10-11T00:28:24.063Z,99.90
2022-10-11T00:43:33.841Z,99.90
2022-10-11T00:58:39.424Z,99.90
2022-10-11T01:13:53.271Z,99.90
2022-10-11T01:29:09.363Z,99.90
2022-10-11T01:44:14.797Z,99.90
2022-10-11T01:59:35.293Z,99.90
2022-10-11T02:14:43.146Z,99.90
2022-10-11T02:29:50.503Z,99.90
2022-10-11T02:45:00.833Z,99.90
2022-10-11T03:00:06.494Z,99.90
2022-10-11T03:15:11.907Z,99.90
2022-10-11T03:30:18.432Z,99.90
2022-10-11T03:45:22.983Z,99.90
2022-10-11T04:00:28.104Z,99.90
2022-10-11T04:15:32.530Z,99.90
2022-10-11T04:30:37.223Z,99.90
2022-10-11T04:45:41.597Z,99.90
2022-10-11T05:00:45.998Z,99.90
2022-10-11T05:15:50.255Z,99.90
2022-10-11T05:30:55.060Z,99.90
2022-10-11T05:45:59.745Z,99.90
2022-10-11T06:01:04.391Z,99.90
2022-10-11T06:16:09.415Z,99.90
2022-10-11T06:31:14.059Z,99.90
2022-10-11T06:46:19.311Z,99.90
2022-10-11T07:01:24.634Z,99.90
2022-10-11T07:16:29.629Z,99.90
2022-10-11T07:31:34.722Z,99.90
2022-10-11T07:46:39.109Z,99.90
2022-10-11T08:01:43.522Z,99.90
2022-10-11T08:16:48.585Z,99.90
2022-10-11T08:31:52.985Z,99.90
2022-10-11T08:47:00.980Z,99.90
2022-10-11T09:02:20.462Z,99.90
2022-10-11T09:17:37.155Z,99.90
2022-10-11T09:32:46.563Z,99.90
2022-10-11T09:47:53.352Z,99.90
2022-10-11T10:03:00.037Z,99.90
2022-10-11T10:18:06.497Z,99.90
2022-10-11T10:33:12.545Z,99.90
2022-10-11T10:48:24.741Z,99.90
2022-10-11T11:03:37.379Z,99.10
2022-10-11T11:18:50.120Z,99.40
2022-10-11T11:34:03.476Z,98.10
2022-10-11T11:49:15.183Z,95.60
2022-10-11T12:04:24.009Z,95.90
2022-10-11T12:19:28.510Z,96.10
2022-10-11T12:34:37.850Z,95.90
2022-10-11T12:49:59.295Z,95.30
2022-10-11T13:05:09.114Z,95.20
2022-10-11T13:20:20.405Z,94.10
2022-10-11T13:35:31.566Z,95.00
2022-10-11T13:51:09.917Z,95.10
2022-10-11T14:06:16.320Z,96.90
2022-10-11T14:21:33.180Z,92.40
2022-10-11T14:36:47.793Z,84.50
2022-10-11T14:51:54.229Z,78.10
2022-10-11T15:06:59.122Z,72.60
2022-10-11T15:22:06.023Z,72.50
2022-10-11T16:10:42.701Z,77.70
2022-10-11T16:25:47.712Z,82.30
2022-10-11T16:40:52.804Z,83.40
2022-10-11T16:56:00.338Z,85.50
2022-10-11T17:11:06.285Z,85.70
2022-10-11T17:26:18.913Z,84.80
2022-10-11T17:41:28.147Z,87.60
2022-10-11T17:56:45.272Z,86.40
2022-10-11T18:12:04.063Z,87.30
2022-10-11T18:27:09.845Z,88.40
2022-10-11T18:42:23.205Z,87.80
2022-10-11T18:57:27.896Z,88.60
2022-10-11T19:12:50.631Z,88.70
2022-10-11T19:30:08.569Z,88.80
2022-10-11T20:00:37.048Z,90.00
2022-10-11T20:15:41.506Z,90.40
2022-10-11T20:30:45.869Z,91.00
2022-10-11T20:46:02.256Z,90.40
2022-10-11T21:01:12.995Z,90.50
2022-10-11T21:16:18.050Z,90.70
2022-10-11T21:31:23.864Z,90.50
2022-10-11T21:46:54.187Z,90.60
2022-10-11T22:01:58.137Z,90.70
2022-10-11T22:17:05.326Z,90.80
2022-10-11T22:32:11.173Z,90.50
2022-10-11T22:47:15.515Z,90.50
2022-10-11T23:02:19.816Z,90.60
2022-10-11T23:17:24.239Z,90.60
2022-10-11T23:32:28.644Z,91.10
2022-10-11T23:47:33.013Z,91.30
